Terminal Aerodrome Forecast
Issued by NWS Mt. Holly, NJ

Home | Current Version | Previous Version | Text Only | Print | Product List | Glossary On
Versions: 1 2 3 4 5 6 7 8 9 10 11 12 13 14 15 16 17 18 19 20
619
FTUS41 KPHI 162337
TAFACY
TAF
KACY 162337Z 1700/1724 24008KT P6SM BKN060
     FM170500 28005KT P6SM BKN050
     FM170800 33005KT P6SM SCT150
     FM172000 VRB03KT P6SM BKN120=

USA.gov is the U.S. government's official web portal to all federal, state and local government web resources and services.